sensor_id;sensor_type;location;lat;lon;timestamp;P1;durP1;ratioP1;P2;durP2;ratioP2
22603;SDS011;11469;49.024;8.246;2024-02-15T00:02:14;6.63;;;2.75;;
22603;SDS011;11469;49.024;8.246;2024-02-15T00:04:39;11.45;;;2.85;;
22603;SDS011;11469;49.024;8.246;2024-02-15T00:07:05;5.85;;;2.60;;
22603;SDS011;11469;49.024;8.246;2024-02-15T00:09:31;8.73;;;2.55;;
22603;SDS011;11469;49.024;8.246;2024-02-15T00:11:56;9.35;;;2.70;;
22603;SDS011;11469;49.024;8.246;2024-02-15T00:14:22;6.65;;;2.72;;
22603;SDS011;11469;49.024;8.246;2024-02-15T00:16:47;6.60;;;2.63;;
22603;SDS011;11469;49.024;8.246;2024-02-15T00:19:13;7.32;;;2.28;;
22603;SDS011;11469;49.024;8.246;2024-02-15T00:21:45;8.88;;;3.22;;
22603;SDS011;11469;49.024;8.246;2024-02-15T00:24:11;6.40;;;2.58;;
22603;SDS011;11469;49.024;8.246;2024-02-15T00:26:36;6.13;;;2.50;;
22603;SDS011;11469;49.024;8.246;2024-02-15T00:29:02;8.48;;;2.53;;
22603;SDS011;11469;49.024;8.246;2024-02-15T00:31:27;8.65;;;2.92;;
22603;SDS011;11469;49.024;8.246;2024-02-15T00:33:52;9.00;;;3.05;;
22603;SDS011;11469;49.024;8.246;2024-02-15T00:36:19;6.75;;;2.83;;
22603;SDS011;11469;49.024;8.246;2024-02-15T00:38:44;6.80;;;2.80;;
22603;SDS011;11469;49.024;8.246;2024-02-15T00:41:10;7.15;;;2.90;;
22603;SDS011;11469;49.024;8.246;2024-02-15T00:43:35;6.80;;;2.90;;
22603;SDS011;11469;49.024;8.246;2024-02-15T00:46:01;9.25;;;2.78;;
22603;SDS011;11469;49.024;8.246;2024-02-15T00:48:26;6.88;;;2.85;;
22603;SDS011;11469;49.024;8.246;2024-02-15T00:50:53;7.60;;;3.30;;
22603;SDS011;11469;49.024;8.246;2024-02-15T00:53:19;5.60;;;2.55;;
22603;SDS011;11469;49.024;8.246;2024-02-15T00:55:45;8.98;;;2.38;;
22603;SDS011;11469;49.024;8.246;2024-02-15T00:58:11;8.15;;;2.63;;
22603;SDS011;11469;49.024;8.246;2024-02-15T01:00:36;8.70;;;2.88;;
22603;SDS011;11469;49.024;8.246;2024-02-15T01:03:02;5.25;;;2.20;;
22603;SDS011;11469;49.024;8.246;2024-02-15T01:05:28;5.07;;;2.05;;
22603;SDS011;11469;49.024;8.246;2024-02-15T01:07:53;12.35;;;2.95;;
22603;SDS011;11469;49.024;8.246;2024-02-15T01:10:20;9.30;;;2.72;;
22603;SDS011;11469;49.024;8.246;2024-02-15T01:12:46;10.00;;;3.15;;
22603;SDS011;11469;49.024;8.246;2024-02-15T01:15:11;11.55;;;3.10;;
22603;SDS011;11469;49.024;8.246;2024-02-15T01:17:37;11.13;;;3.17;;
22603;SDS011;11469;49.024;8.246;2024-02-15T01:20:02;5.43;;;2.70;;
22603;SDS011;11469;49.024;8.246;2024-02-15T01:22:28;9.18;;;3.10;;
22603;SDS011;11469;49.024;8.246;2024-02-15T01:24:53;5.38;;;2.80;;
22603;SDS011;11469;49.024;8.246;2024-02-15T01:27:19;9.95;;;2.65;;
22603;SDS011;11469;49.024;8.246;2024-02-15T01:29:44;7.97;;;3.20;;
22603;SDS011;11469;49.024;8.246;2024-02-15T01:32:10;6.05;;;2.55;;
22603;SDS011;11469;49.024;8.246;2024-02-15T01:34:36;10.18;;;3.25;;
22603;SDS011;11469;49.024;8.246;2024-02-15T01:37:01;10.25;;;3.30;;
22603;SDS011;11469;49.024;8.246;2024-02-15T01:39:26;9.48;;;2.92;;
22603;SDS011;11469;49.024;8.246;2024-02-15T01:41:52;7.82;;;2.80;;
22603;SDS011;11469;49.024;8.246;2024-02-15T01:44:20;10.43;;;3.40;;
22603;SDS011;11469;49.024;8.246;2024-02-15T01:46:49;10.63;;;3.08;;
22603;SDS011;11469;49.024;8.246;2024-02-15T01:49:17;13.18;;;3.65;;
22603;SDS011;11469;49.024;8.246;2024-02-15T01:51:42;7.40;;;3.22;;
22603;SDS011;11469;49.024;8.246;2024-02-15T01:54:12;10.43;;;3.55;;
22603;SDS011;11469;49.024;8.246;2024-02-15T01:56:42;8.70;;;2.95;;
22603;SDS011;11469;49.024;8.246;2024-02-15T01:59:08;7.25;;;3.08;;
22603;SDS011;11469;49.024;8.246;2024-02-15T02:01:35;7.00;;;3.53;;
22603;SDS011;11469;49.024;8.246;2024-02-15T02:04:00;8.98;;;3.70;;
22603;SDS011;11469;49.024;8.246;2024-02-15T02:06:27;7.50;;;3.40;;
22603;SDS011;11469;49.024;8.246;2024-02-15T02:08:54;7.63;;;3.30;;
22603;SDS011;11469;49.024;8.246;2024-02-15T02:11:21;7.53;;;2.85;;
22603;SDS011;11469;49.024;8.246;2024-02-15T02:13:47;8.45;;;3.42;;
22603;SDS011;11469;49.024;8.246;2024-02-15T02:16:28;7.18;;;2.95;;
22603;SDS011;11469;49.024;8.246;2024-02-15T02:18:56;10.07;;;4.18;;
22603;SDS011;11469;49.024;8.246;2024-02-15T02:21:26;9.48;;;3.30;;
22603;SDS011;11469;49.024;8.246;2024-02-15T02:23:53;10.00;;;3.25;;
22603;SDS011;11469;49.024;8.246;2024-02-15T02:26:21;9.82;;;3.60;;
22603;SDS011;11469;49.024;8.246;2024-02-15T02:28:48;9.23;;;3.40;;
22603;SDS011;11469;49.024;8.246;2024-02-15T02:31:13;7.63;;;3.10;;
22603;SDS011;11469;49.024;8.246;2024-02-15T02:33:39;8.52;;;3.55;;
22603;SDS011;11469;49.024;8.246;2024-02-15T02:36:06;11.35;;;3.40;;
22603;SDS011;11469;49.024;8.246;2024-02-15T02:38:37;13.60;;;3.15;;
22603;SDS011;11469;49.024;8.246;2024-02-15T02:41:06;11.20;;;3.53;;
22603;SDS011;11469;49.024;8.246;2024-02-15T02:43:32;14.38;;;3.55;;
22603;SDS011;11469;49.024;8.246;2024-02-15T02:45:57;13.07;;;3.50;;
22603;SDS011;11469;49.024;8.246;2024-02-15T02:48:23;8.38;;;3.15;;
22603;SDS011;11469;49.024;8.246;2024-02-15T02:50:48;8.88;;;3.13;;
22603;SDS011;11469;49.024;8.246;2024-02-15T02:53:14;8.60;;;3.35;;
22603;SDS011;11469;49.024;8.246;2024-02-15T02:55:43;8.98;;;3.10;;
22603;SDS011;11469;49.024;8.246;2024-02-15T02:58:08;7.88;;;3.67;;
22603;SDS011;11469;49.024;8.246;2024-02-15T03:00:34;10.82;;;3.58;;
22603;SDS011;11469;49.024;8.246;2024-02-15T03:02:59;7.88;;;3.20;;
22603;SDS011;11469;49.024;8.246;2024-02-15T03:05:25;9.55;;;2.70;;
22603;SDS011;11469;49.024;8.246;2024-02-15T03:07:51;9.20;;;3.13;;
22603;SDS011;11469;49.024;8.246;2024-02-15T03:10:17;9.02;;;3.25;;
22603;SDS011;11469;49.024;8.246;2024-02-15T03:12:43;7.97;;;3.58;;
22603;SDS011;11469;49.024;8.246;2024-02-15T03:15:12;7.05;;;3.17;;
22603;SDS011;11469;49.024;8.246;2024-02-15T03:17:38;12.52;;;3.88;;
22603;SDS011;11469;49.024;8.246;2024-02-15T03:20:05;13.35;;;3.85;;
22603;SDS011;11469;49.024;8.246;2024-02-15T03:22:36;8.80;;;3.20;;
22603;SDS011;11469;49.024;8.246;2024-02-15T03:25:03;11.40;;;3.35;;
22603;SDS011;11469;49.024;8.246;2024-02-15T03:27:32;8.25;;;3.40;;
22603;SDS011;11469;49.024;8.246;2024-02-15T03:30:02;8.88;;;3.08;;
22603;SDS011;11469;49.024;8.246;2024-02-15T03:32:29;9.45;;;3.50;;
22603;SDS011;11469;49.024;8.246;2024-02-15T03:34:55;11.95;;;3.45;;
22603;SDS011;11469;49.024;8.246;2024-02-15T03:37:20;8.43;;;3.40;;
22603;SDS011;11469;49.024;8.246;2024-02-15T03:39:46;10.13;;;3.35;;
22603;SDS011;11469;49.024;8.246;2024-02-15T03:42:12;9.40;;;3.75;;
22603;SDS011;11469;49.024;8.246;2024-02-15T03:44:37;12.15;;;4.30;;
22603;SDS011;11469;49.024;8.246;2024-02-15T03:47:04;9.80;;;3.78;;
22603;SDS011;11469;49.024;8.246;2024-02-15T03:49:30;8.50;;;3.40;;
22603;SDS011;11469;49.024;8.246;2024-02-15T03:51:56;6.90;;;3.22;;
22603;SDS011;11469;49.024;8.246;2024-02-15T03:54:23;10.20;;;4.25;;
22603;SDS011;11469;49.024;8.246;2024-02-15T03:56:49;10.40;;;3.53;;
22603;SDS011;11469;49.024;8.246;2024-02-15T03:59:20;17.27;;;4.20;;
22603;SDS011;11469;49.024;8.246;2024-02-15T04:01:55;10.00;;;3.55;;
22603;SDS011;11469;49.024;8.246;2024-02-15T04:04:22;12.18;;;3.63;;
22603;SDS011;11469;49.024;8.246;2024-02-15T04:06:50;13.63;;;3.67;;
22603;SDS011;11469;49.024;8.246;2024-02-15T04:09:19;12.63;;;4.40;;
22603;SDS011;11469;49.024;8.246;2024-02-15T04:11:45;10.18;;;3.00;;
22603;SDS011;11469;49.024;8.246;2024-02-15T04:14:14;8.73;;;3.20;;
22603;SDS011;11469;49.024;8.246;2024-02-15T04:16:40;10.05;;;3.80;;
22603;SDS011;11469;49.024;8.246;2024-02-15T04:19:06;9.55;;;3.28;;
22603;SDS011;11469;49.024;8.246;2024-02-15T04:21:31;8.73;;;3.60;;
22603;SDS011;11469;49.024;8.246;2024-02-15T04:23:57;9.15;;;3.33;;
22603;SDS011;11469;49.024;8.246;2024-02-15T04:26:22;11.18;;;3.85;;
22603;SDS011;11469;49.024;8.246;2024-02-15T04:28:52;13.20;;;3.80;;
22603;SDS011;11469;49.024;8.246;2024-02-15T04:31:20;16.23;;;3.88;;
22603;SDS011;11469;49.024;8.246;2024-02-15T04:33:51;8.80;;;3.83;;
22603;SDS011;11469;49.024;8.246;2024-02-15T04:36:19;12.20;;;4.13;;
22603;SDS011;11469;49.024;8.246;2024-02-15T04:38:51;13.55;;;3.80;;
22603;SDS011;11469;49.024;8.246;2024-02-15T04:41:17;8.55;;;3.47;;
22603;SDS011;11469;49.024;8.246;2024-02-15T04:43:51;8.60;;;3.58;;
22603;SDS011;11469;49.024;8.246;2024-02-15T04:46:19;8.23;;;3.17;;
22603;SDS011;11469;49.024;8.246;2024-02-15T04:48:49;12.57;;;4.22;;
22603;SDS011;11469;49.024;8.246;2024-02-15T04:51:15;7.47;;;3.47;;
22603;SDS011;11469;49.024;8.246;2024-02-15T04:53:44;8.02;;;3.78;;
22603;SDS011;11469;49.024;8.246;2024-02-15T04:56:14;9.88;;;3.92;;
22603;SDS011;11469;49.024;8.246;2024-02-15T04:58:40;15.25;;;4.00;;
22603;SDS011;11469;49.024;8.246;2024-02-15T05:01:15;12.07;;;4.22;;
22603;SDS011;11469;49.024;8.246;2024-02-15T05:03:45;9.20;;;3.60;;
22603;SDS011;11469;49.024;8.246;2024-02-15T05:06:10;12.00;;;3.67;;
22603;SDS011;11469;49.024;8.246;2024-02-15T05:08:38;12.52;;;3.97;;
22603;SDS011;11469;49.024;8.246;2024-02-15T05:11:08;12.02;;;3.67;;
22603;SDS011;11469;49.024;8.246;2024-02-15T05:13:40;7.13;;;3.17;;
22603;SDS011;11469;49.024;8.246;2024-02-15T05:16:06;7.75;;;3.38;;
22603;SDS011;11469;49.024;8.246;2024-02-15T05:18:31;12.88;;;4.22;;
22603;SDS011;11469;49.024;8.246;2024-02-15T05:20:56;11.23;;;4.03;;
22603;SDS011;11469;49.024;8.246;2024-02-15T05:23:22;9.50;;;3.50;;
22603;SDS011;11469;49.024;8.246;2024-02-15T05:25:47;13.13;;;4.03;;
22603;SDS011;11469;49.024;8.246;2024-02-15T05:28:13;9.18;;;3.70;;
22603;SDS011;11469;49.024;8.246;2024-02-15T05:30:38;8.68;;;3.55;;
22603;SDS011;11469;49.024;8.246;2024-02-15T05:33:04;10.40;;;3.78;;
22603;SDS011;11469;49.024;8.246;2024-02-15T05:35:35;11.18;;;4.28;;
22603;SDS011;11469;49.024;8.246;2024-02-15T05:38:01;9.60;;;3.45;;
22603;SDS011;11469;49.024;8.246;2024-02-15T05:40:29;11.52;;;3.53;;
22603;SDS011;11469;49.024;8.246;2024-02-15T05:42:55;15.18;;;3.85;;
22603;SDS011;11469;49.024;8.246;2024-02-15T05:47:50;18.58;;;4.30;;
22603;SDS011;11469;49.024;8.246;2024-02-15T05:50:16;9.20;;;3.38;;
22603;SDS011;11469;49.024;8.246;2024-02-15T05:52:45;13.40;;;3.42;;
22603;SDS011;11469;49.024;8.246;2024-02-15T05:55:11;11.43;;;3.67;;
22603;SDS011;11469;49.024;8.246;2024-02-15T05:57:37;12.40;;;3.05;;
22603;SDS011;11469;49.024;8.246;2024-02-15T06:00:02;9.77;;;3.03;;
22603;SDS011;11469;49.024;8.246;2024-02-15T06:02:28;9.70;;;2.95;;
22603;SDS011;11469;49.024;8.246;2024-02-15T06:04:55;10.48;;;3.25;;
22603;SDS011;11469;49.024;8.246;2024-02-15T06:07:26;10.88;;;3.45;;
22603;SDS011;11469;49.024;8.246;2024-02-15T06:09:51;10.52;;;3.13;;
22603;SDS011;11469;49.024;8.246;2024-02-15T06:12:17;14.63;;;3.80;;
22603;SDS011;11469;49.024;8.246;2024-02-15T06:14:42;7.93;;;3.42;;
22603;SDS011;11469;49.024;8.246;2024-02-15T06:17:08;8.90;;;3.83;;
22603;SDS011;11469;49.024;8.246;2024-02-15T06:19:34;11.40;;;3.83;;
22603;SDS011;11469;49.024;8.246;2024-02-15T06:21:59;17.55;;;4.57;;
22603;SDS011;11469;49.024;8.246;2024-02-15T06:24:26;13.80;;;3.75;;
22603;SDS011;11469;49.024;8.246;2024-02-15T06:26:53;11.88;;;3.70;;
22603;SDS011;11469;49.024;8.246;2024-02-15T06:29:24;11.82;;;4.75;;
22603;SDS011;11469;49.024;8.246;2024-02-15T06:32:09;12.55;;;4.18;;
22603;SDS011;11469;49.024;8.246;2024-02-15T06:34:53;11.60;;;4.50;;
22603;SDS011;11469;49.024;8.246;2024-02-15T06:37:37;9.13;;;3.95;;
22603;SDS011;11469;49.024;8.246;2024-02-15T06:42:47;14.48;;;4.22;;
22603;SDS011;11469;49.024;8.246;2024-02-15T06:45:13;15.73;;;4.47;;
22603;SDS011;11469;49.024;8.246;2024-02-15T06:47:42;8.30;;;3.78;;
22603;SDS011;11469;49.024;8.246;2024-02-15T06:50:14;9.77;;;3.70;;
22603;SDS011;11469;49.024;8.246;2024-02-15T06:52:40;10.27;;;4.13;;
22603;SDS011;11469;49.024;8.246;2024-02-15T06:55:06;12.55;;;4.00;;
22603;SDS011;11469;49.024;8.246;2024-02-15T06:57:33;16.65;;;4.43;;
22603;SDS011;11469;49.024;8.246;2024-02-15T07:00:03;15.55;;;3.55;;
22603;SDS011;11469;49.024;8.246;2024-02-15T07:02:35;7.05;;;2.88;;
22603;SDS011;11469;49.024;8.246;2024-02-15T07:05:01;12.98;;;3.95;;
22603;SDS011;11469;49.024;8.246;2024-02-15T07:07:31;11.57;;;3.90;;
22603;SDS011;11469;49.024;8.246;2024-02-15T07:09:57;10.38;;;3.47;;
22603;SDS011;11469;49.024;8.246;2024-02-15T07:12:22;8.13;;;3.90;;
22603;SDS011;11469;49.024;8.246;2024-02-15T07:14:48;8.98;;;3.65;;
22603;SDS011;11469;49.024;8.246;2024-02-15T07:17:13;11.52;;;3.78;;
22603;SDS011;11469;49.024;8.246;2024-02-15T07:19:45;11.23;;;3.80;;
22603;SDS011;11469;49.024;8.246;2024-02-15T07:22:14;10.82;;;4.07;;
22603;SDS011;11469;49.024;8.246;2024-02-15T07:24:42;8.32;;;3.78;;
22603;SDS011;11469;49.024;8.246;2024-02-15T07:27:08;12.57;;;4.10;;
22603;SDS011;11469;49.024;8.246;2024-02-15T07:29:34;10.45;;;3.72;;
22603;SDS011;11469;49.024;8.246;2024-02-15T07:32:02;7.30;;;3.90;;
22603;SDS011;11469;49.024;8.246;2024-02-15T07:34:30;10.60;;;3.63;;
22603;SDS011;11469;49.024;8.246;2024-02-15T07:36:55;7.63;;;3.08;;
22603;SDS011;11469;49.024;8.246;2024-02-15T07:39:23;10.57;;;3.30;;
22603;SDS011;11469;49.024;8.246;2024-02-15T07:41:50;8.68;;;3.88;;
22603;SDS011;11469;49.024;8.246;2024-02-15T07:44:16;9.48;;;3.38;;
22603;SDS011;11469;49.024;8.246;2024-02-15T07:46:42;9.52;;;3.95;;
22603;SDS011;11469;49.024;8.246;2024-02-15T07:49:08;10.75;;;3.50;;
22603;SDS011;11469;49.024;8.246;2024-02-15T07:51:34;7.90;;;3.53;;
22603;SDS011;11469;49.024;8.246;2024-02-15T07:53:59;12.23;;;3.90;;
22603;SDS011;11469;49.024;8.246;2024-02-15T07:56:26;8.90;;;2.88;;
22603;SDS011;11469;49.024;8.246;2024-02-15T07:58:52;9.40;;;3.15;;
22603;SDS011;11469;49.024;8.246;2024-02-15T08:01:17;8.75;;;2.65;;
22603;SDS011;11469;49.024;8.246;2024-02-15T08:03:46;8.10;;;3.25;;
22603;SDS011;11469;49.024;8.246;2024-02-15T08:06:12;7.28;;;2.63;;
22603;SDS011;11469;49.024;8.246;2024-02-15T08:08:40;5.40;;;2.30;;
22603;SDS011;11469;49.024;8.246;2024-02-15T08:11:11;5.95;;;2.40;;
22603;SDS011;11469;49.024;8.246;2024-02-15T08:13:44;7.90;;;3.53;;
22603;SDS011;11469;49.024;8.246;2024-02-15T08:16:15;9.75;;;3.42;;
22603;SDS011;11469;49.024;8.246;2024-02-15T08:18:41;10.32;;;3.05;;
22603;SDS011;11469;49.024;8.246;2024-02-15T08:21:09;12.40;;;3.15;;
22603;SDS011;11469;49.024;8.246;2024-02-15T08:23:34;9.95;;;3.40;;
22603;SDS011;11469;49.024;8.246;2024-02-15T08:26:00;8.40;;;3.20;;
22603;SDS011;11469;49.024;8.246;2024-02-15T08:28:25;6.70;;;2.70;;
22603;SDS011;11469;49.024;8.246;2024-02-15T08:30:53;9.23;;;3.17;;
22603;SDS011;11469;49.024;8.246;2024-02-15T08:33:21;9.40;;;3.30;;
22603;SDS011;11469;49.024;8.246;2024-02-15T08:35:46;13.82;;;4.40;;
22603;SDS011;11469;49.024;8.246;2024-02-15T08:38:12;10.02;;;4.30;;
22603;SDS011;11469;49.024;8.246;2024-02-15T08:40:37;11.38;;;4.28;;
22603;SDS011;11469;49.024;8.246;2024-02-15T08:43:02;15.13;;;5.70;;
22603;SDS011;11469;49.024;8.246;2024-02-15T08:45:28;10.48;;;4.22;;
22603;SDS011;11469;49.024;8.246;2024-02-15T08:47:53;12.40;;;4.50;;
22603;SDS011;11469;49.024;8.246;2024-02-15T08:50:19;8.48;;;3.95;;
22603;SDS011;11469;49.024;8.246;2024-02-15T08:52:46;17.13;;;4.93;;
22603;SDS011;11469;49.024;8.246;2024-02-15T08:55:12;10.27;;;4.35;;
22603;SDS011;11469;49.024;8.246;2024-02-15T08:57:40;10.30;;;4.03;;
22603;SDS011;11469;49.024;8.246;2024-02-15T09:00:06;9.88;;;3.92;;
22603;SDS011;11469;49.024;8.246;2024-02-15T09:02:42;11.88;;;3.65;;
22603;SDS011;11469;49.024;8.246;2024-02-15T09:05:08;10.05;;;3.85;;
22603;SDS011;11469;49.024;8.246;2024-02-15T09:07:34;15.35;;;4.10;;
22603;SDS011;11469;49.024;8.246;2024-02-15T09:10:01;10.77;;;4.15;;
22603;SDS011;11469;49.024;8.246;2024-02-15T09:12:27;12.23;;;3.20;;
22603;SDS011;11469;49.024;8.246;2024-02-15T09:14:52;6.82;;;3.47;;
22603;SDS011;11469;49.024;8.246;2024-02-15T09:17:17;7.80;;;3.00;;
22603;SDS011;11469;49.024;8.246;2024-02-15T09:19:43;5.55;;;2.92;;
22603;SDS011;11469;49.024;8.246;2024-02-15T09:22:08;6.70;;;2.92;;
22603;SDS011;11469;49.024;8.246;2024-02-15T09:24:33;9.48;;;2.58;;
22603;SDS011;11469;49.024;8.246;2024-02-15T09:27:02;11.73;;;3.63;;
22603;SDS011;11469;49.024;8.246;2024-02-15T09:29:28;7.25;;;2.70;;
22603;SDS011;11469;49.024;8.246;2024-02-15T09:31:55;8.95;;;2.80;;
22603;SDS011;11469;49.024;8.246;2024-02-15T09:34:21;6.63;;;2.80;;
22603;SDS011;11469;49.024;8.246;2024-02-15T09:36:46;8.52;;;2.33;;
22603;SDS011;11469;49.024;8.246;2024-02-15T09:39:12;6.05;;;2.17;;
22603;SDS011;11469;49.024;8.246;2024-02-15T09:41:39;8.07;;;2.88;;
22603;SDS011;11469;49.024;8.246;2024-02-15T09:44:04;7.43;;;2.45;;
22603;SDS011;11469;49.024;8.246;2024-02-15T09:46:32;10.73;;;2.65;;
22603;SDS011;11469;49.024;8.246;2024-02-15T09:49:01;8.07;;;2.33;;
22603;SDS011;11469;49.024;8.246;2024-02-15T09:51:28;10.38;;;3.38;;
22603;SDS011;11469;49.024;8.246;2024-02-15T09:53:58;10.25;;;2.95;;
22603;SDS011;11469;49.024;8.246;2024-02-15T09:56:26;5.63;;;2.20;;
22603;SDS011;11469;49.024;8.246;2024-02-15T09:58:53;6.40;;;2.90;;
22603;SDS011;11469;49.024;8.246;2024-02-15T10:01:19;12.50;;;2.40;;
22603;SDS011;11469;49.024;8.246;2024-02-15T10:03:48;6.25;;;2.22;;
22603;SDS011;11469;49.024;8.246;2024-02-15T10:06:16;10.82;;;2.53;;
22603;SDS011;11469;49.024;8.246;2024-02-15T10:08:43;9.13;;;2.40;;
22603;SDS011;11469;49.024;8.246;2024-02-15T10:11:10;12.07;;;2.95;;
22603;SDS011;11469;49.024;8.246;2024-02-15T10:13:36;9.43;;;2.80;;
22603;SDS011;11469;49.024;8.246;2024-02-15T10:19:09;6.93;;;2.28;;
22603;SDS011;11469;49.024;8.246;2024-02-15T10:21:35;9.73;;;2.30;;
22603;SDS011;11469;49.024;8.246;2024-02-15T10:24:07;8.05;;;2.13;;
22603;SDS011;11469;49.024;8.246;2024-02-15T10:26:34;8.93;;;2.38;;
22603;SDS011;11469;49.024;8.246;2024-02-15T10:29:07;4.90;;;2.10;;
22603;SDS011;11469;49.024;8.246;2024-02-15T10:31:37;6.20;;;1.97;;
22603;SDS011;11469;49.024;8.246;2024-02-15T10:34:04;33.35;;;5.07;;
22603;SDS011;11469;49.024;8.246;2024-02-15T10:36:30;10.38;;;2.10;;
22603;SDS011;11469;49.024;8.246;2024-02-15T10:39:15;9.55;;;2.40;;
22603;SDS011;11469;49.024;8.246;2024-02-15T10:41:45;12.43;;;2.38;;
22603;SDS011;11469;49.024;8.246;2024-02-15T10:44:13;7.72;;;2.03;;
22603;SDS011;11469;49.024;8.246;2024-02-15T10:46:41;6.65;;;1.90;;
22603;SDS011;11469;49.024;8.246;2024-02-15T10:49:07;5.53;;;1.83;;
22603;SDS011;11469;49.024;8.246;2024-02-15T10:51:33;10.65;;;2.38;;
22603;SDS011;11469;49.024;8.246;2024-02-15T10:54:04;6.10;;;2.10;;
22603;SDS011;11469;49.024;8.246;2024-02-15T10:56:34;13.82;;;2.33;;
22603;SDS011;11469;49.024;8.246;2024-02-15T10:59:23;7.47;;;1.83;;
22603;SDS011;11469;49.024;8.246;2024-02-15T11:01:51;21.77;;;2.53;;
22603;SDS011;11469;49.024;8.246;2024-02-15T11:04:22;11.13;;;2.47;;
22603;SDS011;11469;49.024;8.246;2024-02-15T11:06:57;7.15;;;2.10;;
22603;SDS011;11469;49.024;8.246;2024-02-15T11:09:27;8.82;;;2.08;;
22603;SDS011;11469;49.024;8.246;2024-02-15T11:11:55;8.32;;;2.10;;
22603;SDS011;11469;49.024;8.246;2024-02-15T11:14:27;8.10;;;2.40;;
22603;SDS011;11469;49.024;8.246;2024-02-15T11:17:00;5.97;;;1.92;;
22603;SDS011;11469;49.024;8.246;2024-02-15T11:21:57;7.50;;;2.42;;
22603;SDS011;11469;49.024;8.246;2024-02-15T11:26:53;9.15;;;2.05;;
22603;SDS011;11469;49.024;8.246;2024-02-15T11:32:25;7.68;;;1.55;;
22603;SDS011;11469;49.024;8.246;2024-02-15T11:40:27;4.57;;;1.35;;
22603;SDS011;11469;49.024;8.246;2024-02-15T11:43:00;12.20;;;1.70;;
22603;SDS011;11469;49.024;8.246;2024-02-15T11:45:26;4.60;;;1.15;;
22603;SDS011;11469;49.024;8.246;2024-02-15T11:47:58;5.40;;;1.40;;
22603;SDS011;11469;49.024;8.246;2024-02-15T11:50:23;3.85;;;1.13;;
22603;SDS011;11469;49.024;8.246;2024-02-15T11:52:50;4.75;;;1.20;;
22603;SDS011;11469;49.024;8.246;2024-02-15T11:55:20;3.75;;;0.80;;
22603;SDS011;11469;49.024;8.246;2024-02-15T12:00:28;5.28;;;1.77;;
22603;SDS011;11469;49.024;8.246;2024-02-15T12:03:13;3.10;;;1.30;;
22603;SDS011;11469;49.024;8.246;2024-02-15T12:05:58;4.82;;;1.27;;
22603;SDS011;11469;49.024;8.246;2024-02-15T12:08:46;5.55;;;1.08;;
22603;SDS011;11469;49.024;8.246;2024-02-15T12:11:31;7.38;;;1.35;;
22603;SDS011;11469;49.024;8.246;2024-02-15T12:14:15;8.60;;;1.67;;
22603;SDS011;11469;49.024;8.246;2024-02-15T12:17:00;7.68;;;1.73;;
22603;SDS011;11469;49.024;8.246;2024-02-15T12:19:44;5.45;;;1.35;;
22603;SDS011;11469;49.024;8.246;2024-02-15T12:22:09;7.38;;;1.45;;
22603;SDS011;11469;49.024;8.246;2024-02-15T12:24:35;4.90;;;1.40;;
22603;SDS011;11469;49.024;8.246;2024-02-15T12:27:01;7.65;;;1.65;;
22603;SDS011;11469;49.024;8.246;2024-02-15T12:29:30;4.88;;;2.05;;
22603;SDS011;11469;49.024;8.246;2024-02-15T12:31:58;5.65;;;1.55;;
22603;SDS011;11469;49.024;8.246;2024-02-15T12:34:23;11.85;;;1.75;;
22603;SDS011;11469;49.024;8.246;2024-02-15T12:36:49;4.57;;;1.00;;
22603;SDS011;11469;49.024;8.246;2024-02-15T12:39:15;5.68;;;1.85;;
22603;SDS011;11469;49.024;8.246;2024-02-15T12:41:50;3.78;;;1.35;;
22603;SDS011;11469;49.024;8.246;2024-02-15T12:44:16;5.50;;;1.52;;
22603;SDS011;11469;49.024;8.246;2024-02-15T12:46:42;6.57;;;1.63;;
22603;SDS011;11469;49.024;8.246;2024-02-15T12:49:27;9.55;;;1.77;;
22603;SDS011;11469;49.024;8.246;2024-02-15T12:51:53;8.70;;;1.83;;
22603;SDS011;11469;49.024;8.246;2024-02-15T12:54:39;11.55;;;1.83;;
22603;SDS011;11469;49.024;8.246;2024-02-15T12:57:08;6.88;;;1.70;;
22603;SDS011;11469;49.024;8.246;2024-02-15T12:59:39;6.00;;;1.50;;
22603;SDS011;11469;49.024;8.246;2024-02-15T13:02:04;6.47;;;1.65;;
22603;SDS011;11469;49.024;8.246;2024-02-15T13:04:30;4.90;;;1.38;;
22603;SDS011;11469;49.024;8.246;2024-02-15T13:06:56;8.13;;;1.80;;
22603;SDS011;11469;49.024;8.246;2024-02-15T13:09:21;3.15;;;1.17;;
22603;SDS011;11469;49.024;8.246;2024-02-15T13:11:48;4.90;;;1.30;;
22603;SDS011;11469;49.024;8.246;2024-02-15T13:14:15;5.70;;;1.20;;
22603;SDS011;11469;49.024;8.246;2024-02-15T13:16:40;5.65;;;1.40;;
22603;SDS011;11469;49.024;8.246;2024-02-15T13:19:08;3.85;;;1.20;;
22603;SDS011;11469;49.024;8.246;2024-02-15T13:21:33;6.97;;;1.42;;
22603;SDS011;11469;49.024;8.246;2024-02-15T13:23:59;7.78;;;1.80;;
22603;SDS011;11469;49.024;8.246;2024-02-15T13:26:25;7.82;;;1.20;;
22603;SDS011;11469;49.024;8.246;2024-02-15T13:28:51;6.30;;;1.40;;
22603;SDS011;11469;49.024;8.246;2024-02-15T13:31:17;9.40;;;1.77;;
22603;SDS011;11469;49.024;8.246;2024-02-15T13:33:42;8.38;;;1.55;;
22603;SDS011;11469;49.024;8.246;2024-02-15T13:36:08;7.07;;;1.98;;
22603;SDS011;11469;49.024;8.246;2024-02-15T13:38:36;5.65;;;1.30;;
22603;SDS011;11469;49.024;8.246;2024-02-15T13:41:02;6.68;;;1.42;;
22603;SDS011;11469;49.024;8.246;2024-02-15T13:43:28;4.82;;;1.40;;
22603;SDS011;11469;49.024;8.246;2024-02-15T13:45:56;13.38;;;1.85;;
22603;SDS011;11469;49.024;8.246;2024-02-15T13:48:22;4.07;;;1.50;;
22603;SDS011;11469;49.024;8.246;2024-02-15T13:50:51;8.13;;;1.63;;
22603;SDS011;11469;49.024;8.246;2024-02-15T13:53:17;6.40;;;1.40;;
22603;SDS011;11469;49.024;8.246;2024-02-15T13:55:43;6.18;;;1.55;;
22603;SDS011;11469;49.024;8.246;2024-02-15T13:58:09;6.88;;;1.40;;
22603;SDS011;11469;49.024;8.246;2024-02-15T14:00:37;15.15;;;2.42;;
22603;SDS011;11469;49.024;8.246;2024-02-15T14:03:03;16.35;;;2.33;;
22603;SDS011;11469;49.024;8.246;2024-02-15T14:05:31;25.02;;;3.72;;
22603;SDS011;11469;49.024;8.246;2024-02-15T14:08:01;9.02;;;1.33;;
22603;SDS011;11469;49.024;8.246;2024-02-15T14:10:29;4.25;;;1.40;;
22603;SDS011;11469;49.024;8.246;2024-02-15T14:12:56;9.93;;;1.73;;
22603;SDS011;11469;49.024;8.246;2024-02-15T14:15:25;5.97;;;1.75;;
22603;SDS011;11469;49.024;8.246;2024-02-15T14:17:51;5.32;;;1.50;;
22603;SDS011;11469;49.024;8.246;2024-02-15T14:20:17;6.57;;;1.70;;
22603;SDS011;11469;49.024;8.246;2024-02-15T14:22:48;5.47;;;1.42;;
22603;SDS011;11469;49.024;8.246;2024-02-15T14:25:14;4.55;;;1.60;;
22603;SDS011;11469;49.024;8.246;2024-02-15T14:27:40;6.70;;;1.63;;
22603;SDS011;11469;49.024;8.246;2024-02-15T14:30:06;5.70;;;1.90;;
22603;SDS011;11469;49.024;8.246;2024-02-15T14:32:51;7.55;;;2.13;;
22603;SDS011;11469;49.024;8.246;2024-02-15T14:35:29;5.47;;;1.73;;
22603;SDS011;11469;49.024;8.246;2024-02-15T14:38:07;10.40;;;2.05;;
22603;SDS011;11469;49.024;8.246;2024-02-15T14:40:36;7.95;;;1.70;;
22603;SDS011;11469;49.024;8.246;2024-02-15T14:43:03;7.22;;;1.70;;
22603;SDS011;11469;49.024;8.246;2024-02-15T14:45:30;10.50;;;1.80;;
22603;SDS011;11469;49.024;8.246;2024-02-15T14:47:57;7.78;;;2.25;;
22603;SDS011;11469;49.024;8.246;2024-02-15T14:50:23;7.05;;;2.33;;
22603;SDS011;11469;49.024;8.246;2024-02-15T14:52:49;8.05;;;2.03;;
22603;SDS011;11469;49.024;8.246;2024-02-15T14:55:14;11.38;;;1.85;;
22603;SDS011;11469;49.024;8.246;2024-02-15T14:57:40;7.22;;;1.63;;
22603;SDS011;11469;49.024;8.246;2024-02-15T15:00:06;5.63;;;1.88;;
22603;SDS011;11469;49.024;8.246;2024-02-15T15:02:42;8.48;;;1.90;;
22603;SDS011;11469;49.024;8.246;2024-02-15T15:05:13;6.00;;;1.50;;
22603;SDS011;11469;49.024;8.246;2024-02-15T15:07:58;8.73;;;1.70;;
22603;SDS011;11469;49.024;8.246;2024-02-15T15:10:44;3.72;;;1.50;;
22603;SDS011;11469;49.024;8.246;2024-02-15T15:13:28;8.68;;;1.90;;